Time;durP1;ratioP1;P1;durP2;ratioP2;P2;SDS_P1;SDS_P2;PMS_P1;PMS_P2;Temp;Humidity;BMP_temperature;BMP_pressure;BME280_temperature;BME280_humidity;BME280_pressure;Samples;Min_cycle;Max_cycle;Signal;HPM_P1;HPM_P2
2023/04/20 00:03:57;;;;;;;154.83;49.57;;;;;;;;;;10507461;28;20044;-85
2023/04/20 00:08:58;;;;;;;161.07;49.27;;;;;;;;;;10526903;28;20152;-84
2023/04/20 00:13:59;;;;;;;147.63;45.87;;;;;;;;;;10526904;28;20032;-84
2023/04/20 00:19:00;;;;;;;170.07;51.53;;;;;;;;;;10526229;28;20032;-85
2023/04/20 00:24:01;;;;;;;164.57;51.60;;;;;;;;;;10526734;28;20039;-84
2023/04/20 00:29:02;;;;;;;172.27;50.70;;;;;;;;;;10526366;28;20467;-84
2023/04/20 00:34:03;;;;;;;163.37;50.50;;;;;;;;;;10525892;28;20040;-84
2023/04/20 00:39:04;;;;;;;154.63;46.47;;;;;;;;;;10526558;28;20417;-85
2023/04/20 00:44:06;;;;;;;138.83;46.17;;;;;;;;;;10526022;28;20032;-83
2023/04/20 00:49:07;;;;;;;138.77;45.13;;;;;;;;;;10525957;28;20036;-85
2023/04/20 00:54:08;;;;;;;151.17;46.57;;;;;;;;;;10507542;28;20036;-83
2023/04/20 00:59:09;;;;;;;127.23;43.33;;;;;;;;;;10526052;28;20108;-84
2023/04/20 01:04:10;;;;;;;137.00;47.03;;;;;;;;;;10526265;28;20055;-84
2023/04/20 01:09:13;;;;;;;137.93;46.30;;;;;;;;;;10507209;28;20116;-84
2023/04/20 01:14:14;;;;;;;144.67;45.37;;;;;;;;;;10509332;28;20028;-85
2023/04/20 01:19:18;;;;;;;145.57;45.80;;;;;;;;;;10533196;28;20039;-84
2023/04/20 01:24:19;;;;;;;165.00;48.50;;;;;;;;;;10514486;28;20024;-84
2023/04/20 01:29:20;;;;;;;180.07;56.33;;;;;;;;;;10513822;28;20028;-85
2023/04/20 01:34:23;;;;;;;143.20;45.03;;;;;;;;;;10532001;28;20398;-86
2023/04/20 01:39:24;;;;;;;165.20;51.43;;;;;;;;;;10532023;28;20039;-84
2023/04/20 01:44:30;;;;;;;144.87;47.23;;;;;;;;;;10531912;28;20040;-84
2023/04/20 01:49:31;;;;;;;120.93;42.33;;;;;;;;;;10531923;28;20028;-83
2023/04/20 01:54:32;;;;;;;140.67;44.57;;;;;;;;;;10531339;28;20040;-85
2023/04/20 01:59:34;;;;;;;149.50;48.67;;;;;;;;;;10531804;28;20070;-84
2023/04/20 02:04:35;;;;;;;137.80;44.97;;;;;;;;;;10531086;28;20113;-84
2023/04/20 02:09:39;;;;;;;142.37;44.77;;;;;;;;;;10512403;28;20119;-83
2023/04/20 02:14:40;;;;;;;153.13;47.27;;;;;;;;;;10530561;28;20054;-85
2023/04/20 02:19:45;;;;;;;139.77;44.87;;;;;;;;;;10530438;28;20484;-85
2023/04/20 02:24:47;;;;;;;154.80;45.57;;;;;;;;;;10511318;28;20031;-86
2023/04/20 02:29:50;;;;;;;131.70;42.07;;;;;;;;;;10529926;28;20032;-84
2023/04/20 02:34:51;;;;;;;116.00;40.30;;;;;;;;;;10529518;28;20480;-84
2023/04/20 02:39:53;;;;;;;130.20;43.73;;;;;;;;;;10529279;28;20024;-85
2023/04/20 02:44:55;;;;;;;119.67;43.17;;;;;;;;;;10529548;28;20028;-85
2023/04/20 02:49:57;;;;;;;112.83;41.90;;;;;;;;;;10530048;28;20064;-84
2023/04/20 02:54:58;;;;;;;105.20;37.80;;;;;;;;;;10529206;28;20054;-85
2023/04/20 02:59:59;;;;;;;98.27;35.17;;;;;;;;;;10529161;28;20634;-85
2023/04/20 03:05:00;;;;;;;108.07;39.93;;;;;;;;;;10539041;28;20051;-85
2023/04/20 03:10:01;;;;;;;107.83;39.17;;;;;;;;;;10528913;28;20028;-84
2023/04/20 03:15:03;;;;;;;107.33;38.27;;;;;;;;;;10528026;28;20086;-86
2023/04/20 03:20:05;;;;;;;104.40;39.43;;;;;;;;;;10527618;28;20032;-85
2023/04/20 03:25:06;;;;;;;107.03;37.93;;;;;;;;;;10527951;28;20031;-85
2023/04/20 03:30:08;;;;;;;109.87;40.10;;;;;;;;;;10528132;28;20718;-84
2023/04/20 03:35:09;;;;;;;105.67;37.53;;;;;;;;;;10527612;28;20118;-81
2023/04/20 03:40:10;;;;;;;106.27;37.57;;;;;;;;;;10527540;28;20863;-83
2023/04/20 03:45:12;;;;;;;105.27;38.60;;;;;;;;;;10526852;28;20032;-83
2023/04/20 03:50:13;;;;;;;102.60;35.73;;;;;;;;;;10526786;28;20032;-86
2023/04/20 03:55:14;;;;;;;113.80;40.93;;;;;;;;;;10527159;28;20039;-89
2023/04/20 04:00:15;;;;;;;109.23;37.53;;;;;;;;;;10526882;28;20032;-86
2023/04/20 04:05:16;;;;;;;112.40;38.43;;;;;;;;;;10526947;28;20040;-85
2023/04/20 04:10:20;;;;;;;115.87;39.47;;;;;;;;;;10525680;28;20441;-85
2023/04/20 04:15:23;;;;;;;106.50;36.40;;;;;;;;;;10527323;28;20399;-85
2023/04/20 04:20:24;;;;;;;105.83;39.83;;;;;;;;;;10527022;28;20036;-84
2023/04/20 04:25:25;;;;;;;110.03;37.37;;;;;;;;;;10527081;28;20027;-85
2023/04/20 04:30:26;;;;;;;112.30;38.77;;;;;;;;;;10526692;28;20085;-85
2023/04/20 04:35:29;;;;;;;100.87;36.40;;;;;;;;;;10509068;28;20048;-84
2023/04/20 04:40:36;;;;;;;105.90;35.27;;;;;;;;;;10514541;28;20127;-85
2023/04/20 04:45:41;;;;;;;96.63;31.60;;;;;;;;;;10525991;28;20118;-85
2023/04/20 04:50:42;;;;;;;106.07;33.03;;;;;;;;;;10512110;28;20497;-85
2023/04/20 04:55:42;;;;;;;97.07;33.10;;;;;;;;;;10515639;28;20043;-84
2023/04/20 05:00:43;;;;;;;104.17;33.13;;;;;;;;;;10534507;28;20069;-84
2023/04/20 05:05:45;;;;;;;96.40;30.83;;;;;;;;;;10533336;28;20044;-84
2023/04/20 05:10:46;;;;;;;89.23;27.47;;;;;;;;;;10532512;28;20763;-86
2023/04/20 05:15:46;;;;;;;77.47;30.37;;;;;;;;;;10533548;28;20035;-85
2023/04/20 05:20:47;;;;;;;91.77;29.47;;;;;;;;;;10514768;28;20047;-85
2023/04/20 05:25:48;;;;;;;96.33;32.80;;;;;;;;;;10514759;28;20481;-85
2023/04/20 05:30:49;;;;;;;104.60;29.87;;;;;;;;;;10514691;28;20092;-85
2023/04/20 05:35:50;;;;;;;105.93;32.30;;;;;;;;;;10532206;28;20043;-85
2023/04/20 05:40:51;;;;;;;104.13;34.27;;;;;;;;;;10531841;28;20032;-84
2023/04/20 05:45:52;;;;;;;104.07;33.07;;;;;;;;;;10531808;28;20032;-84
2023/04/20 05:50:54;;;;;;;103.83;36.07;;;;;;;;;;10532484;28;20040;-84
2023/04/20 05:55:55;;;;;;;110.00;35.20;;;;;;;;;;10531051;28;20664;-84
2023/04/20 06:00:56;;;;;;;99.07;33.30;;;;;;;;;;10531603;28;20028;-85
2023/04/20 06:05:57;;;;;;;102.33;34.47;;;;;;;;;;10531409;28;20129;-85
2023/04/20 06:11:00;;;;;;;93.97;31.87;;;;;;;;;;10530958;28;20055;-83
2023/04/20 06:16:00;;;;;;;88.47;32.23;;;;;;;;;;10530366;28;20039;-85
2023/04/20 06:21:01;;;;;;;94.90;32.53;;;;;;;;;;10530546;28;20020;-84
2023/04/20 06:26:03;;;;;;;102.63;34.90;;;;;;;;;;10530551;28;20031;-84
2023/04/20 06:31:04;;;;;;;86.47;33.07;;;;;;;;;;10529830;28;20040;-84
2023/04/20 06:36:08;;;;;;;85.03;31.75;;;;;;;;;;10514453;28;20437;-86
2023/04/20 06:41:09;;;;;;;83.97;30.92;;;;;;;;;;10520338;28;20101;-85
2023/04/20 06:46:10;;;;;;;73.00;27.83;;;;;;;;;;10529631;28;20651;-85
2023/04/20 06:51:12;;;;;;;69.38;28.02;;;;;;;;;;10528268;28;20032;-85
2023/04/20 06:56:13;;;;;;;61.45;26.98;;;;;;;;;;10510871;28;20071;-85
2023/04/20 07:01:14;;;;;;;69.55;26.73;;;;;;;;;;10529350;28;20051;-85
2023/04/20 07:06:16;;;;;;;61.80;26.90;;;;;;;;;;10528230;28;20060;-85
2023/04/20 07:11:17;;;;;;;58.17;25.30;;;;;;;;;;10527499;28;20890;-86
2023/04/20 07:16:18;;;;;;;61.35;27.23;;;;;;;;;;10509672;28;20039;-86
2023/04/20 07:21:19;;;;;;;55.83;25.73;;;;;;;;;;10529387;28;20035;-85
2023/04/20 07:26:20;;;;;;;58.38;24.42;;;;;;;;;;10509407;28;20028;-85
2023/04/20 07:31:20;;;;;;;59.47;24.90;;;;;;;;;;10527760;28;20032;-85
2023/04/20 07:36:21;;;;;;;59.05;24.58;;;;;;;;;;10527581;28;20042;-85
2023/04/20 07:41:22;;;;;;;50.13;25.05;;;;;;;;;;10528256;28;20036;-84
2023/04/20 07:46:24;;;;;;;57.95;26.85;;;;;;;;;;10527596;28;20471;-85
2023/04/20 07:51:25;;;;;;;67.47;29.92;;;;;;;;;;10509197;28;20035;-85
2023/04/20 07:56:26;;;;;;;68.85;30.38;;;;;;;;;;10527644;28;20028;-84
2023/04/20 08:01:27;;;;;;;65.97;31.88;;;;;;;;;;10526919;28;20694;-84
2023/04/20 08:06:28;;;;;;;57.97;28.70;;;;;;;;;;10483890;28;20044;-85
2023/04/20 08:11:29;;;;;;;63.40;28.80;;;;;;;;;;10485275;28;20036;-84
2023/04/20 08:16:30;;;;;;;65.80;30.25;;;;;;;;;;10485043;28;20102;-84
2023/04/20 08:21:31;;;;;;;61.33;29.67;;;;;;;;;;10485441;28;20017;-85
2023/04/20 08:26:32;;;;;;;67.18;29.25;;;;;;;;;;10490832;28;20056;-83
2023/04/20 08:31:34;;;;;;;64.50;29.13;;;;;;;;;;10491764;28;20030;-84
2023/04/20 08:36:35;;;;;;;57.03;29.00;;;;;;;;;;10492754;28;20558;-84
2023/04/20 08:41:36;;;;;;;60.03;28.20;;;;;;;;;;10492390;28;20107;-85
2023/04/20 08:46:37;;;;;;;63.10;30.20;;;;;;;;;;10492497;28;20085;-84
2023/04/20 08:51:42;;;;;;;58.05;28.98;;;;;;;;;;10493639;28;20032;-84
2023/04/20 08:56:44;;;;;;;56.80;27.48;;;;;;;;;;10491538;28;20025;-84
2023/04/20 09:01:45;;;;;;;50.55;27.02;;;;;;;;;;10491536;28;20032;-84
2023/04/20 09:06:49;;;;;;;45.50;25.17;;;;;;;;;;10534044;28;20054;-84
2023/04/20 09:12:06;;;;;;;53.25;26.90;;;;;;;;;;10515553;28;20020;-84
2023/04/20 09:17:07;;;;;;;38.17;22.10;;;;;;;;;;10533588;28;20107;-85
2023/04/20 09:22:08;;;;;;;43.83;23.02;;;;;;;;;;10533206;28;20035;-85
2023/04/20 09:27:16;;;;;;;37.42;21.73;;;;;;;;;;10533653;28;20024;-83
2023/04/20 09:32:23;;;;;;;37.47;20.95;;;;;;;;;;10533152;28;20090;-84
2023/04/20 09:37:24;;;;;;;34.75;20.13;;;;;;;;;;10532222;28;20446;-84
2023/04/20 09:42:26;;;;;;;34.40;18.67;;;;;;;;;;10533639;28;20039;-84
2023/04/20 09:47:29;;;;;;;23.73;15.18;;;;;;;;;;10513936;28;20063;-84
2023/04/20 09:52:30;;;;;;;24.27;13.77;;;;;;;;;;10513364;28;20047;-84
2023/04/20 09:57:32;;;;;;;21.10;13.13;;;;;;;;;;10531977;28;20024;-83
2023/04/20 10:02:33;;;;;;;22.95;13.40;;;;;;;;;;10531361;28;20105;-83
2023/04/20 10:07:34;;;;;;;24.88;12.45;;;;;;;;;;10531432;28;20027;-85
2023/04/20 10:12:47;;;;;;;18.85;10.63;;;;;;;;;;10530919;28;20723;-83
2023/04/20 10:17:48;;;;;;;18.27;10.40;;;;;;;;;;10531153;28;20275;-84
2023/04/20 10:22:50;;;;;;;15.98;9.57;;;;;;;;;;10530657;28;20020;-83
2023/04/20 10:27:52;;;;;;;19.83;11.50;;;;;;;;;;10530756;28;20013;-84
2023/04/20 10:33:02;;;;;;;18.48;10.65;;;;;;;;;;10529915;28;20024;-84
2023/04/20 10:38:03;;;;;;;13.18;7.22;;;;;;;;;;10530114;28;20023;-84
2023/04/20 10:43:04;;;;;;;15.68;7.93;;;;;;;;;;10516264;28;20064;-84
2023/04/20 10:48:09;;;;;;;15.75;8.68;;;;;;;;;;10529124;28;20125;-84
2023/04/20 10:53:22;;;;;;;17.95;10.38;;;;;;;;;;10530363;28;20028;-85
2023/04/20 10:58:24;;;;;;;15.82;9.85;;;;;;;;;;10529248;28;20530;-84
2023/04/20 11:03:27;;;;;;;20.77;11.05;;;;;;;;;;10510463;28;20052;-84
2023/04/20 11:08:39;;;;;;;19.23;11.18;;;;;;;;;;10516481;28;20032;-83
2023/04/20 11:13:40;;;;;;;20.83;12.13;;;;;;;;;;10492027;28;20207;-84
2023/04/20 11:18:53;;;;;;;15.10;9.73;;;;;;;;;;10528321;28;20031;-85
2023/04/20 11:23:55;;;;;;;15.70;9.15;;;;;;;;;;10527554;28;20426;-84
2023/04/20 11:28:58;;;;;;;18.42;9.02;;;;;;;;;;10500971;28;20028;-85
2023/04/20 11:34:00;;;;;;;17.08;8.65;;;;;;;;;;10524832;28;20585;-84
2023/04/20 11:39:11;;;;;;;14.65;9.02;;;;;;;;;;10528061;28;20035;-85
2023/04/20 11:44:15;;;;;;;17.52;9.73;;;;;;;;;;10512425;28;20060;-84
2023/04/20 11:49:16;;;;;;;13.10;8.35;;;;;;;;;;10526703;28;20413;-84
2023/04/20 11:54:24;;;;;;;18.75;9.13;;;;;;;;;;10512577;28;20035;-84
2023/04/20 11:59:29;;;;;;;15.27;9.15;;;;;;;;;;10527471;28;20016;-84
2023/04/20 12:04:31;;;;;;;12.70;8.25;;;;;;;;;;10527263;28;20745;-84
2023/04/20 12:09:37;;;;;;;11.48;7.20;;;;;;;;;;10521428;28;20535;-84
2023/04/20 12:14:38;;;;;;;12.38;5.85;;;;;;;;;;10515597;28;20121;-84
2023/04/20 12:19:39;;;;;;;15.63;6.30;;;;;;;;;;10526680;28;20032;-83
2023/04/20 12:24:40;;;;;;;13.20;6.85;;;;;;;;;;10527135;28;20039;-84
2023/04/20 12:29:41;;;;;;;12.63;5.88;;;;;;;;;;10526829;28;20032;-85
2023/04/20 12:34:43;;;;;;;15.05;6.90;;;;;;;;;;10526167;28;20028;-84
2023/04/20 12:39:44;;;;;;;12.88;5.68;;;;;;;;;;10526564;28;20028;-84
2023/04/20 12:44:56;;;;;;;10.60;5.70;;;;;;;;;;10526533;28;20032;-84
2023/04/20 12:49:57;;;;;;;8.73;4.55;;;;;;;;;;10526729;28;20033;-82
2023/04/20 12:55:04;;;;;;;12.38;5.50;;;;;;;;;;10527101;28;20044;-84
2023/04/20 13:00:11;;;;;;;15.02;6.13;;;;;;;;;;10526012;28;20039;-85
2023/04/20 13:05:18;;;;;;;10.20;4.82;;;;;;;;;;10512906;28;20538;-86
2023/04/20 13:10:22;;;;;;;16.63;5.30;;;;;;;;;;10528237;28;20077;-84
2023/04/20 13:15:25;;;;;;;17.30;7.65;;;;;;;;;;10533012;28;20062;-83
2023/04/20 13:20:28;;;;;;;17.60;6.25;;;;;;;;;;10514466;28;20032;-85
2023/04/20 13:25:32;;;;;;;13.38;5.90;;;;;;;;;;10533461;28;20024;-84
2023/04/20 13:30:35;;;;;;;11.10;5.38;;;;;;;;;;10532621;28;20032;-83
2023/04/20 13:35:40;;;;;;;20.88;7.53;;;;;;;;;;10514270;28;20039;-83
2023/04/20 13:40:43;;;;;;;9.50;3.50;;;;;;;;;;10532485;28;20059;-85
2023/04/20 13:45:44;;;;;;;11.15;3.53;;;;;;;;;;10518249;28;20520;-83
2023/04/20 13:50:47;;;;;;;26.25;9.73;;;;;;;;;;10531995;28;20131;-83
2023/04/20 13:55:48;;;;;;;17.35;7.07;;;;;;;;;;10531735;28;20032;-84
2023/04/20 14:00:49;;;;;;;21.23;8.75;;;;;;;;;;10531505;28;20024;-82
2023/04/20 14:05:50;;;;;;;14.98;5.97;;;;;;;;;;10531406;28;20044;-82
2023/04/20 14:10:51;;;;;;;16.10;5.20;;;;;;;;;;10512507;28;20054;-84
2023/04/20 14:15:53;;;;;;;10.43;3.53;;;;;;;;;;10530823;28;20039;-83
2023/04/20 14:20:54;;;;;;;10.70;4.47;;;;;;;;;;10529282;28;20031;-83
2023/04/20 14:25:55;;;;;;;10.82;5.38;;;;;;;;;;10530576;28;20386;-84
2023/04/20 14:30:59;;;;;;;14.23;5.78;;;;;;;;;;10529975;28;20089;-83
2023/04/20 14:36:00;;;;;;;13.57;4.80;;;;;;;;;;10511477;28;20036;-83
2023/04/20 14:41:01;;;;;;;10.60;5.30;;;;;;;;;;10511606;28;20024;-83
2023/04/20 14:46:04;;;;;;;10.60;3.85;;;;;;;;;;10529792;28;20498;-84
2023/04/20 14:51:06;;;;;;;11.40;5.85;;;;;;;;;;10511622;28;20048;-82
2023/04/20 14:56:07;;;;;;;9.18;3.50;;;;;;;;;;10527025;28;20040;-83
2023/04/20 15:01:08;;;;;;;81.95;37.90;;;;;;;;;;10528069;28;20028;-83
2023/04/20 15:06:10;;;;;;;18.38;5.47;;;;;;;;;;10528808;28;20470;-83
2023/04/20 15:11:11;;;;;;;13.20;4.30;;;;;;;;;;10529048;28;20556;-80
2023/04/20 15:16:12;;;;;;;11.18;5.20;;;;;;;;;;10528573;28;20040;-82
2023/04/20 15:21:13;;;;;;;96.13;48.80;;;;;;;;;;10527728;28;20019;-82
2023/04/20 15:26:14;;;;;;;12.90;6.60;;;;;;;;;;10528123;28;20677;-87
2023/04/20 15:31:16;;;;;;;9.60;5.00;;;;;;;;;;10527363;28;20066;-83
2023/04/20 15:36:18;;;;;;;10.27;3.90;;;;;;;;;;10520710;28;20042;-83
2023/04/20 15:41:20;;;;;;;5.90;3.65;;;;;;;;;;10518409;28;20032;-83
2023/04/20 15:46:23;;;;;;;18.10;8.13;;;;;;;;;;10511876;28;20091;-82
2023/04/20 15:51:24;;;;;;;9.75;4.15;;;;;;;;;;10527567;28;20028;-83
2023/04/20 15:56:25;;;;;;;6.38;3.30;;;;;;;;;;10527130;28;20040;-83
2023/04/20 16:01:26;;;;;;;15.80;3.85;;;;;;;;;;10526782;28;20028;-83
2023/04/20 16:06:27;;;;;;;11.35;3.30;;;;;;;;;;10526515;28;20062;-82
2023/04/20 16:11:28;;;;;;;12.07;4.38;;;;;;;;;;10526510;28;20028;-83
2023/04/20 16:16:29;;;;;;;7.78;4.70;;;;;;;;;;10526635;28;20398;-83
2023/04/20 16:21:30;;;;;;;10.85;4.03;;;;;;;;;;10526935;28;20402;-83
2023/04/20 16:26:31;;;;;;;10.25;4.80;;;;;;;;;;10526414;28;20467;-83
2023/04/20 16:31:34;;;;;;;10.85;4.60;;;;;;;;;;10527309;28;20055;-83
2023/04/20 16:36:35;;;;;;;9.93;4.18;;;;;;;;;;10525854;28;20032;-83
2023/04/20 16:41:36;;;;;;;12.68;5.13;;;;;;;;;;10526197;28;20036;-83
2023/04/20 16:46:37;;;;;;;10.40;4.88;;;;;;;;;;10530895;28;20039;-83
2023/04/20 16:51:38;;;;;;;11.23;5.22;;;;;;;;;;10534515;28;20034;-83
2023/04/20 16:56:39;;;;;;;9.88;5.32;;;;;;;;;;10534408;28;20044;-83
2023/04/20 17:01:40;;;;;;;13.18;5.40;;;;;;;;;;10534219;28;20081;-83
2023/04/20 17:06:41;;;;;;;12.05;5.03;;;;;;;;;;10533457;28;20056;-83
2023/04/20 17:17:26;;;;;;;10.82;4.70;;;;;;;;;;10532390;28;20040;-82
2023/04/20 17:22:31;;;;;;;8.63;4.38;;;;;;;;;;10533323;28;20043;-83
2023/04/20 17:27:35;;;;;;;14.07;5.50;;;;;;;;;;10533564;28;20043;-82
2023/04/20 17:32:37;;;;;;;14.82;5.45;;;;;;;;;;10532953;28;20147;-83
2023/04/20 17:37:38;;;;;;;12.65;5.65;;;;;;;;;;10532350;28;20520;-83
2023/04/20 17:42:40;;;;;;;12.60;6.10;;;;;;;;;;10532435;28;20177;-83
2023/04/20 17:47:41;;;;;;;10.88;6.40;;;;;;;;;;10533349;28;20032;-83
2023/04/20 17:52:42;;;;;;;15.40;7.15;;;;;;;;;;10531629;28;20027;-83
2023/04/20 17:57:43;;;;;;;16.02;7.68;;;;;;;;;;10489308;28;20040;-83
2023/04/20 18:02:46;;;;;;;19.52;9.32;;;;;;;;;;10505994;28;20076;-82
2023/04/20 18:07:47;;;;;;;22.10;11.10;;;;;;;;;;10517696;28;20036;-83
2023/04/20 18:12:48;;;;;;;25.40;11.23;;;;;;;;;;10516554;28;20036;-83
2023/04/20 18:17:49;;;;;;;26.50;12.48;;;;;;;;;;10530670;28;20077;-85
2023/04/20 18:22:50;;;;;;;23.70;12.75;;;;;;;;;;10530243;28;20027;-85
2023/04/20 18:27:51;;;;;;;31.20;14.43;;;;;;;;;;10530192;28;20020;-84
2023/04/20 18:32:52;;;;;;;31.85;14.20;;;;;;;;;;10530221;28;20024;-84
2023/04/20 18:37:55;;;;;;;33.40;15.95;;;;;;;;;;10529451;28;20062;-87
2023/04/20 18:42:56;;;;;;;34.95;15.05;;;;;;;;;;10530308;28;20101;-83
2023/04/20 18:47:57;;;;;;;27.65;14.48;;;;;;;;;;10517402;28;20029;-83
2023/04/20 18:53:00;;;;;;;31.23;14.85;;;;;;;;;;10511809;28;20095;-83
2023/04/20 18:58:03;;;;;;;26.02;12.93;;;;;;;;;;10529671;28;20109;-84
2023/04/20 19:03:04;;;;;;;28.08;13.10;;;;;;;;;;10529591;28;20044;-84
2023/04/20 19:08:05;;;;;;;23.17;11.02;;;;;;;;;;10527587;28;20544;-84
2023/04/20 19:13:08;;;;;;;24.40;11.15;;;;;;;;;;10529083;28;20157;-87
2023/04/20 19:18:10;;;;;;;23.85;10.73;;;;;;;;;;10528653;28;20036;-83
2023/04/20 19:23:11;;;;;;;22.48;10.15;;;;;;;;;;10528242;28;20038;-83
2023/04/20 19:28:14;;;;;;;23.88;10.35;;;;;;;;;;10528747;28;20024;-82
2023/04/20 19:33:17;;;;;;;25.08;10.90;;;;;;;;;;10538533;28;20418;-83
2023/04/20 19:38:18;;;;;;;22.63;10.85;;;;;;;;;;10531085;28;20043;-83
2023/04/20 19:43:19;;;;;;;24.67;10.93;;;;;;;;;;10521118;28;20104;-82
2023/04/20 19:48:20;;;;;;;27.65;12.35;;;;;;;;;;10485485;28;20103;-83
2023/04/20 19:53:23;;;;;;;26.80;12.50;;;;;;;;;;10493260;28;20028;-83
2023/04/20 19:58:24;;;;;;;26.17;12.17;;;;;;;;;;10523204;28;20150;-82
2023/04/20 20:03:29;;;;;;;32.43;13.93;;;;;;;;;;10527525;28;20051;-83
2023/04/20 20:08:30;;;;;;;28.07;13.40;;;;;;;;;;10527032;28;20111;-82
2023/04/20 20:13:34;;;;;;;26.37;13.00;;;;;;;;;;10523836;28;20020;-84
2023/04/20 20:18:37;;;;;;;27.43;13.23;;;;;;;;;;10519040;28;20402;-82
2023/04/20 20:23:38;;;;;;;29.50;14.93;;;;;;;;;;10521769;28;20052;-81
2023/04/20 20:28:39;;;;;;;30.70;14.13;;;;;;;;;;10516213;28;20114;-82
2023/04/20 20:33:42;;;;;;;28.33;14.13;;;;;;;;;;10531746;28;20028;-83
2023/04/20 20:38:46;;;;;;;33.27;14.43;;;;;;;;;;10522908;28;20041;-82
2023/04/20 20:43:48;;;;;;;31.73;16.07;;;;;;;;;;10520938;28;20364;-83
2023/04/20 20:48:49;;;;;;;27.87;13.83;;;;;;;;;;10509855;28;20063;-82
2023/04/20 20:53:50;;;;;;;32.47;15.93;;;;;;;;;;10528948;28;20031;-81
2023/04/20 20:58:52;;;;;;;25.23;13.67;;;;;;;;;;10520169;28;20123;-83
2023/04/20 21:03:54;;;;;;;24.20;14.33;;;;;;;;;;10526954;28;20128;-82
2023/04/20 21:08:54;;;;;;;24.97;13.03;;;;;;;;;;10532277;28;20221;-82
2023/04/20 21:14:01;;;;;;;26.20;14.60;;;;;;;;;;10531621;28;20012;-82
2023/04/20 21:19:02;;;;;;;26.33;12.83;;;;;;;;;;10533257;28;20028;-84
2023/04/20 21:24:10;;;;;;;29.17;14.77;;;;;;;;;;10513755;28;20040;-83
2023/04/20 21:29:12;;;;;;;29.23;13.77;;;;;;;;;;10515002;28;20039;-83
2023/04/20 21:34:15;;;;;;;28.23;13.77;;;;;;;;;;10531964;28;20490;-82
2023/04/20 21:39:18;;;;;;;27.50;14.83;;;;;;;;;;10532775;28;20051;-83
2023/04/20 21:44:22;;;;;;;33.47;15.57;;;;;;;;;;10531719;28;20035;-82
2023/04/20 21:49:23;;;;;;;32.67;16.17;;;;;;;;;;10515177;28;20046;-83
2023/04/20 21:54:24;;;;;;;30.13;16.10;;;;;;;;;;10532218;28;20036;-82
2023/04/20 21:59:26;;;;;;;36.73;17.00;;;;;;;;;;10531738;28;20063;-82
2023/04/20 22:04:27;;;;;;;30.57;16.57;;;;;;;;;;10531897;28;20491;-82
2023/04/20 22:09:28;;;;;;;31.43;17.10;;;;;;;;;;10531311;28;20447;-82
2023/04/20 22:14:36;;;;;;;31.50;15.33;;;;;;;;;;10529990;28;20031;-83
2023/04/20 22:19:37;;;;;;;30.50;15.40;;;;;;;;;;10531476;28;20043;-83
2023/04/20 22:24:38;;;;;;;31.53;14.77;;;;;;;;;;10531126;28;20498;-83
2023/04/20 22:29:39;;;;;;;29.43;16.23;;;;;;;;;;10530598;28;20538;-83
2023/04/20 22:34:40;;;;;;;29.77;14.33;;;;;;;;;;10530255;28;20024;-84
2023/04/20 22:39:43;;;;;;;26.37;13.90;;;;;;;;;;10531131;28;20024;-82
2023/04/20 22:44:44;;;;;;;30.20;14.30;;;;;;;;;;10511463;28;20043;-82
2023/04/20 22:49:45;;;;;;;28.80;14.27;;;;;;;;;;10530496;28;20031;-81
2023/04/20 22:54:47;;;;;;;32.07;14.60;;;;;;;;;;10530177;28;20051;-83
2023/04/20 22:59:48;;;;;;;28.10;12.83;;;;;;;;;;10529377;28;20079;-82
2023/04/20 23:04:49;;;;;;;29.70;13.97;;;;;;;;;;10529223;28;20052;-82
2023/04/20 23:09:50;;;;;;;24.90;13.43;;;;;;;;;;10529412;28;20028;-82
2023/04/20 23:14:52;;;;;;;25.57;12.00;;;;;;;;;;10530314;28;20666;-82
2023/04/20 23:19:54;;;;;;;25.53;13.50;;;;;;;;;;10529616;28;20110;-82
2023/04/20 23:24:56;;;;;;;25.43;12.07;;;;;;;;;;10528224;28;20073;-82
2023/04/20 23:29:59;;;;;;;23.30;11.70;;;;;;;;;;10528302;28;20035;-82
2023/04/20 23:35:00;;;;;;;27.37;12.50;;;;;;;;;;10528481;28;20042;-83
2023/04/20 23:40:05;;;;;;;22.97;12.40;;;;;;;;;;10528180;28;20044;-82
2023/04/20 23:45:06;;;;;;;24.33;12.60;;;;;;;;;;10527584;28;20028;-83
2023/04/20 23:50:08;;;;;;;30.13;13.43;;;;;;;;;;10527571;28;20035;-82
2023/04/20 23:55:15;;;;;;;26.57;12.17;;;;;;;;;;10527358;28;20107;-82
